createdAt,value
2019-06-08T00:00:34.114Z,95.80
2019-06-08T00:03:05.023Z,95.90
2019-06-08T00:05:36.125Z,95.90
2019-06-08T00:08:07.565Z,95.80
2019-06-08T00:10:38.849Z,95.90
2019-06-08T00:13:09.873Z,95.80
2019-06-08T00:15:40.885Z,95.80
2019-06-08T00:18:11.608Z,95.80
2019-06-08T00:20:42.312Z,95.90
2019-06-08T00:23:13.737Z,96.00
2019-06-08T00:25:46.027Z,96.00
2019-06-08T00:28:16.099Z,95.80
2019-06-08T00:30:46.703Z,95.90
2019-06-08T00:33:18.584Z,95.80
2019-06-08T00:35:50.551Z,96.00
2019-06-08T00:38:25.131Z,96.30
2019-06-08T00:40:56.114Z,96.70
2019-06-08T00:43:27.206Z,96.70
2019-06-08T00:45:58.152Z,96.80
2019-06-08T00:48:29.249Z,96.90
2019-06-08T00:51:00.124Z,96.80
2019-06-08T00:53:30.858Z,97.00
2019-06-08T00:56:01.741Z,97.20
2019-06-08T00:58:32.402Z,97.20
2019-06-08T01:01:03.220Z,97.50
2019-06-08T01:03:35.819Z,97.50
2019-06-08T01:06:06.802Z,97.40
2019-06-08T01:08:39.100Z,97.50
2019-06-08T01:11:09.785Z,97.20
2019-06-08T01:13:40.810Z,97.00
2019-06-08T01:16:11.529Z,97.00
2019-06-08T01:18:42.209Z,97.00
2019-06-08T01:21:13.024Z,97.10
2019-06-08T01:23:43.871Z,97.00
2019-06-08T01:26:15.842Z,97.50
2019-06-08T01:28:46.620Z,97.10
2019-06-08T01:31:17.542Z,97.10
2019-06-08T01:33:48.636Z,97.20
2019-06-08T01:36:20.674Z,97.10
2019-06-08T01:38:51.631Z,97.10
2019-06-08T01:41:23.231Z,96.90
2019-06-08T01:43:53.996Z,97.00
2019-06-08T01:46:25.810Z,96.80
2019-06-08T01:48:57.792Z,96.70
2019-06-08T01:51:29.199Z,96.70
2019-06-08T01:54:00.235Z,96.60
2019-06-08T01:56:31.252Z,96.70
2019-06-08T01:59:02.225Z,96.30
2019-06-08T02:01:34.140Z,96.20
2019-06-08T02:04:06.410Z,95.90
2019-06-08T02:06:37.367Z,96.30
2019-06-08T02:09:09.501Z,95.60
2019-06-08T02:11:40.470Z,95.60
2019-06-08T02:14:11.361Z,95.40
2019-06-08T02:16:42.122Z,95.40
2019-06-08T02:19:13.206Z,95.10
2019-06-08T02:21:44.093Z,95.10
2019-06-08T02:24:14.302Z,95.00
2019-06-08T02:26:44.900Z,95.00
2019-06-08T02:29:15.969Z,94.80
2019-06-08T02:31:48.233Z,94.80
2019-06-08T02:34:20.488Z,94.90
2019-06-08T02:36:51.057Z,94.50
2019-06-08T02:39:24.516Z,94.70
2019-06-08T02:41:55.147Z,94.50
2019-06-08T02:44:27.935Z,94.50
2019-06-08T02:46:58.380Z,94.70
2019-06-08T02:49:29.189Z,94.70
2019-06-08T02:52:01.457Z,94.70
2019-06-08T02:54:35.327Z,94.70
2019-06-08T02:57:06.304Z,94.30
2019-06-08T02:59:40.736Z,94.30
2019-06-08T03:02:13.334Z,94.40
2019-06-08T03:04:44.197Z,93.90
2019-06-08T03:07:17.120Z,94.10
2019-06-08T03:09:50.689Z,94.20
2019-06-08T03:12:23.257Z,94.10
2019-06-08T03:14:55.549Z,93.90
2019-06-08T03:17:26.186Z,93.80
2019-06-08T03:19:57.168Z,93.70
2019-06-08T03:22:32.046Z,93.50
2019-06-08T03:25:02.991Z,93.80
2019-06-08T03:27:36.779Z,93.90
2019-06-08T03:30:17.332Z,93.80
2019-06-08T03:32:50.785Z,93.80
2019-06-08T03:35:13.121Z,93.50
2019-06-08T03:37:44.468Z,93.50
2019-06-08T03:40:15.729Z,93.50
2019-06-08T03:42:48.871Z,93.70
2019-06-08T03:45:19.346Z,93.70
2019-06-08T03:47:49.963Z,93.90
2019-06-08T03:50:20.735Z,94.00
2019-06-08T03:52:53.665Z,94.00
2019-06-08T03:55:24.820Z,94.00
2019-06-08T03:57:54.354Z,94.30
2019-06-08T04:00:24.944Z,94.60
2019-06-08T04:02:55.591Z,94.50
2019-06-08T04:05:26.352Z,94.60
2019-06-08T04:07:57.495Z,94.70
2019-06-08T04:10:28.172Z,94.80
2019-06-08T04:12:59.241Z,94.90
2019-06-08T04:15:29.927Z,94.90
2019-06-08T04:18:00.587Z,94.90
2019-06-08T04:20:31.570Z,95.00
2019-06-08T04:23:02.412Z,95.00
2019-06-08T04:25:33.523Z,95.00
2019-06-08T04:28:06.296Z,95.00
2019-06-08T04:30:38.677Z,95.10
2019-06-08T04:33:09.980Z,95.30
2019-06-08T04:35:42.880Z,95.30
2019-06-08T04:38:15.026Z,95.40
2019-06-08T04:40:48.062Z,95.40
2019-06-08T04:43:18.396Z,95.40
2019-06-08T04:45:49.950Z,95.40
2019-06-08T04:48:21.087Z,95.50
2019-06-08T04:50:51.754Z,95.40
2019-06-08T04:53:22.636Z,95.50
2019-06-08T04:55:53.253Z,95.40
2019-06-08T04:58:24.044Z,95.30
2019-06-08T05:00:54.939Z,95.40
2019-06-08T05:03:26.020Z,95.40
2019-06-08T05:05:56.649Z,95.40
2019-06-08T05:08:27.729Z,95.60
2019-06-08T05:10:58.716Z,95.70
2019-06-08T05:13:29.375Z,95.70
2019-06-08T05:16:00.060Z,95.50
2019-06-08T05:18:31.155Z,95.60
2019-06-08T05:21:01.770Z,95.50
2019-06-08T05:23:32.695Z,95.30
2019-06-08T05:26:04.685Z,95.20
2019-06-08T05:28:35.624Z,95.20
2019-06-08T05:31:06.257Z,94.80
2019-06-08T05:33:37.340Z,94.60
2019-06-08T05:36:08.101Z,94.50
2019-06-08T05:38:39.473Z,94.30
2019-06-08T05:41:10.723Z,94.30
2019-06-08T05:43:41.615Z,94.60
2019-06-08T05:46:12.779Z,93.70
2019-06-08T05:48:43.842Z,93.80
2019-06-08T05:51:14.883Z,93.90
2019-06-08T05:53:45.985Z,93.70
2019-06-08T05:56:16.963Z,93.30
2019-06-08T05:58:48.111Z,93.50
2019-06-08T06:01:19.349Z,93.50
2019-06-08T06:03:51.783Z,93.60
2019-06-08T06:06:23.745Z,93.40
2019-06-08T06:08:54.518Z,93.50
2019-06-08T06:11:26.713Z,93.30
2019-06-08T06:13:57.639Z,93.30
2019-06-08T06:16:28.755Z,93.40
2019-06-08T06:18:59.671Z,93.50
2019-06-08T06:21:30.507Z,93.40
2019-06-08T06:24:01.628Z,93.30
2019-06-08T06:26:32.910Z,93.20
2019-06-08T06:29:04.352Z,93.50
2019-06-08T06:31:35.328Z,93.40
2019-06-08T06:34:06.108Z,93.10
2019-06-08T06:36:37.125Z,93.30
2019-06-08T06:39:08.706Z,93.30
2019-06-08T06:41:39.700Z,93.00
2019-06-08T06:44:10.336Z,93.10
2019-06-08T06:46:44.064Z,93.00
2019-06-08T06:49:18.968Z,93.20
2019-06-08T06:51:50.546Z,92.90
2019-06-08T06:54:21.665Z,92.80
2019-06-08T06:56:53.920Z,92.70
2019-06-08T06:59:25.152Z,92.60
2019-06-08T07:01:57.605Z,92.50
2019-06-08T07:04:28.016Z,92.20
2019-06-08T07:06:58.984Z,92.30
2019-06-08T07:09:30.092Z,92.10
2019-06-08T07:12:00.777Z,92.00
2019-06-08T07:14:31.606Z,91.90
2019-06-08T07:17:02.439Z,91.80
2019-06-08T07:19:33.447Z,90.90
2019-06-08T07:22:04.437Z,90.70
2019-06-08T07:24:35.450Z,90.40
2019-06-08T07:27:07.556Z,90.10
2019-06-08T07:29:38.409Z,90.10
2019-06-08T07:32:09.074Z,90.10
2019-06-08T07:34:41.228Z,90.00
2019-06-08T07:37:12.531Z,88.70
2019-06-08T07:39:43.183Z,89.00
2019-06-08T07:42:13.873Z,87.70
2019-06-08T07:44:44.995Z,88.00
2019-06-08T07:47:15.795Z,88.70
2019-06-08T07:49:47.243Z,87.60
2019-06-08T07:52:18.336Z,87.40
2019-06-08T07:54:50.855Z,86.30
2019-06-08T07:57:21.627Z,85.40
2019-06-08T07:59:53.193Z,84.50
2019-06-08T08:02:25.217Z,84.80
2019-06-08T08:04:56.764Z,84.00
2019-06-08T08:07:30.884Z,84.80
2019-06-08T08:10:02.049Z,85.20
2019-06-08T08:12:32.896Z,83.50
2019-06-08T08:15:03.733Z,84.80
2019-06-08T08:17:34.534Z,83.00
2019-06-08T08:20:06.515Z,82.50
2019-06-08T08:22:38.202Z,83.40
2019-06-08T08:25:09.330Z,83.50
2019-06-08T08:27:40.565Z,83.30
2019-06-08T08:30:11.290Z,82.70
2019-06-08T08:32:42.582Z,83.20
2019-06-08T08:35:13.784Z,82.60
2019-06-08T08:37:47.415Z,82.70
2019-06-08T08:40:17.898Z,82.90
2019-06-08T08:42:48.289Z,82.80
2019-06-08T08:45:20.433Z,82.20
2019-06-08T08:47:55.924Z,83.00
2019-06-08T08:50:23.666Z,82.30
2019-06-08T08:52:54.710Z,82.30
2019-06-08T08:55:27.861Z,82.60
2019-06-08T08:58:02.192Z,82.40
2019-06-08T09:00:33.073Z,81.80
2019-06-08T09:03:21.985Z,82.10
2019-06-08T09:05:38.198Z,81.90
2019-06-08T09:08:09.519Z,81.80
2019-06-08T09:10:44.979Z,80.90
2019-06-08T09:13:28.961Z,80.60
2019-06-08T09:16:02.167Z,80.70
2019-06-08T09:18:31.830Z,80.90
2019-06-08T09:21:03.986Z,81.30
2019-06-08T09:23:37.667Z,81.10
2019-06-08T09:26:12.512Z,80.50
2019-06-08T09:28:40.673Z,80.90
2019-06-08T09:31:13.015Z,80.10
2019-06-08T09:33:53.440Z,78.80
2019-06-08T09:36:17.734Z,77.30
2019-06-08T09:38:48.939Z,77.70
2019-06-08T09:41:20.092Z,76.10
2019-06-08T09:43:50.660Z,76.20
2019-06-08T09:46:21.710Z,76.30
2019-06-08T09:48:54.024Z,75.40
2019-06-08T09:51:48.507Z,74.70
2019-06-08T09:54:18.976Z,75.40
2019-06-08T09:56:49.870Z,75.00
2019-06-08T09:59:20.987Z,76.10
2019-06-08T10:01:52.209Z,77.60
2019-06-08T10:04:23.833Z,77.60
2019-06-08T10:06:54.507Z,74.30
2019-06-08T10:09:25.395Z,74.00
2019-06-08T10:12:04.992Z,73.30
2019-06-08T10:14:43.726Z,73.80
2019-06-08T10:17:24.517Z,73.70
2019-06-08T10:20:00.538Z,74.90
2019-06-08T10:22:30.747Z,74.40
2019-06-08T10:25:14.356Z,74.30
2019-06-08T10:27:55.128Z,73.30
2019-06-08T10:30:30.736Z,72.90
2019-06-08T10:33:10.037Z,73.20
2019-06-08T10:35:43.712Z,73.90
2019-06-08T10:38:14.803Z,73.20
2019-06-08T10:41:12.889Z,73.80
2019-06-08T10:43:41.048Z,72.70
2019-06-08T10:46:17.325Z,71.30
2019-06-08T10:48:45.469Z,72.20
2019-06-08T10:51:18.167Z,73.00
2019-06-08T10:53:53.203Z,73.90
2019-06-08T10:56:30.870Z,75.50
2019-06-08T10:59:01.607Z,75.80
2019-06-08T11:01:32.983Z,75.00
2019-06-08T11:04:05.444Z,72.60
2019-06-08T11:06:39.859Z,72.90
2019-06-08T11:09:13.177Z,73.10
2019-06-08T11:11:42.538Z,72.30
2019-06-08T11:14:14.318Z,72.50
2019-06-08T11:16:47.581Z,72.00
2019-06-08T11:19:19.832Z,70.80
2019-06-08T11:21:52.010Z,71.70
2019-06-08T11:24:25.414Z,73.30
2019-06-08T11:26:57.804Z,76.20
2019-06-08T11:29:30.727Z,78.20
2019-06-08T11:32:21.032Z,81.00
2019-06-08T11:34:52.242Z,81.40
2019-06-08T11:37:22.274Z,81.80
2019-06-08T11:39:57.649Z,80.50
2019-06-08T11:42:29.243Z,80.20
2019-06-08T11:45:02.299Z,74.40
2019-06-08T11:47:33.233Z,69.70
2019-06-08T11:50:04.740Z,68.20
2019-06-08T11:52:38.188Z,69.10
2019-06-08T11:55:12.732Z,67.30
2019-06-08T11:57:48.709Z,66.70
2019-06-08T12:00:30.997Z,69.20
2019-06-08T12:03:02.327Z,70.60
2019-06-08T12:05:36.886Z,71.10
2019-06-08T12:08:08.452Z,72.30
2019-06-08T12:10:41.159Z,71.60
2019-06-08T12:13:13.199Z,70.30
2019-06-08T12:15:48.817Z,70.00
2019-06-08T12:18:23.317Z,70.70
2019-06-08T12:20:54.339Z,70.60
2019-06-08T12:23:32.306Z,71.00
2019-06-08T12:26:08.116Z,70.40
2019-06-08T12:28:48.606Z,71.00
2019-06-08T12:31:22.293Z,73.30
2019-06-08T12:33:51.557Z,75.10
2019-06-08T12:36:23.262Z,73.60
2019-06-08T12:38:54.498Z,73.30
2019-06-08T12:41:31.122Z,73.00
2019-06-08T12:44:15.118Z,71.50
2019-06-08T12:46:58.691Z,69.30
2019-06-08T12:49:32.051Z,68.90
2019-06-08T12:52:04.695Z,68.50
2019-06-08T12:54:39.197Z,68.70
2019-06-08T12:57:14.070Z,67.30
2019-06-08T12:59:46.007Z,68.10
2019-06-08T13:02:21.996Z,67.90
2019-06-08T13:04:49.523Z,66.30
2019-06-08T13:07:21.343Z,67.20
2019-06-08T13:09:53.909Z,65.70
2019-06-08T13:12:27.027Z,66.40
2019-06-08T13:14:58.415Z,67.20
2019-06-08T13:17:30.565Z,65.20
2019-06-08T13:20:02.695Z,64.60
2019-06-08T13:22:38.622Z,64.70
2019-06-08T13:25:27.473Z,65.00
2019-06-08T13:27:48.692Z,63.50
2019-06-08T13:30:25.894Z,61.30
2019-06-08T13:32:54.519Z,60.50
2019-06-08T13:35:27.398Z,60.50
2019-06-08T13:37:59.784Z,59.30
2019-06-08T13:40:33.011Z,57.60
2019-06-08T13:43:15.283Z,58.00
2019-06-08T13:45:48.558Z,57.80
2019-06-08T13:48:22.053Z,55.00
2019-06-08T13:50:53.609Z,54.60
2019-06-08T13:53:31.090Z,53.80
2019-06-08T13:55:58.267Z,55.40
2019-06-08T13:58:33.309Z,54.90
2019-06-08T14:01:04.519Z,55.40
2019-06-08T14:03:35.494Z,53.80
2019-06-08T14:06:12.288Z,53.60
2019-06-08T14:08:43.477Z,53.40
2019-06-08T14:11:15.155Z,50.70
2019-06-08T14:13:48.046Z,51.60
2019-06-08T14:16:21.850Z,51.80
2019-06-08T14:18:52.115Z,50.90
2019-06-08T14:21:33.480Z,51.50
2019-06-08T14:23:58.598Z,52.50
2019-06-08T14:26:30.589Z,53.60
2019-06-08T14:29:01.846Z,55.20
2019-06-08T14:31:33.207Z,56.20
2019-06-08T14:34:04.296Z,57.80
2019-06-08T14:36:34.079Z,58.70
2019-06-08T14:39:10.009Z,60.30
2019-06-08T14:41:38.786Z,61.10
2019-06-08T14:44:08.711Z,62.20
2019-06-08T14:46:41.197Z,62.70
2019-06-08T14:49:11.977Z,62.10
2019-06-08T14:51:51.091Z,61.60
2019-06-08T14:54:27.130Z,60.00
2019-06-08T14:56:57.789Z,60.70
2019-06-08T14:59:30.420Z,61.50
2019-06-08T15:02:02.692Z,62.60
2019-06-08T15:04:36.429Z,64.00
2019-06-08T15:07:09.339Z,67.10
2019-06-08T15:09:38.892Z,67.70
2019-06-08T15:12:10.203Z,65.60
2019-06-08T15:14:47.586Z,61.10
2019-06-08T15:17:19.509Z,56.60
2019-06-08T15:19:50.704Z,54.70
2019-06-08T15:22:22.775Z,54.10
2019-06-08T15:24:58.019Z,52.80
2019-06-08T15:27:32.009Z,53.90
2019-06-08T15:30:06.480Z,54.10
2019-06-08T15:32:38.639Z,53.40
2019-06-08T15:35:11.363Z,52.70
2019-06-08T15:37:47.861Z,52.80
2019-06-08T15:40:27.831Z,53.20
2019-06-08T15:43:01.691Z,57.80
2019-06-08T15:45:34.259Z,60.70
2019-06-08T15:48:07.764Z,62.60
2019-06-08T15:50:38.686Z,63.90
2019-06-08T15:53:10.469Z,64.20
2019-06-08T15:55:44.656Z,65.30
2019-06-08T15:58:18.212Z,66.00
2019-06-08T16:00:55.558Z,66.90
2019-06-08T16:03:25.221Z,67.80
2019-06-08T16:05:56.577Z,68.70
2019-06-08T16:08:28.370Z,70.00
2019-06-08T16:10:59.370Z,71.20
2019-06-08T16:13:31.260Z,71.40
2019-06-08T16:16:04.764Z,70.90
2019-06-08T16:18:36.625Z,71.00
2019-06-08T16:21:09.532Z,70.80
2019-06-08T16:23:41.383Z,70.30
2019-06-08T16:26:15.954Z,69.80
2019-06-08T16:28:46.767Z,69.20
2019-06-08T16:31:24.192Z,69.30
2019-06-08T16:34:03.480Z,70.00
2019-06-08T16:36:37.674Z,70.10
2019-06-08T16:39:09.663Z,69.60
2019-06-08T16:41:41.546Z,69.70
2019-06-08T16:44:15.008Z,70.30
2019-06-08T16:46:46.155Z,70.20
2019-06-08T16:49:16.528Z,69.70
2019-06-08T16:51:47.440Z,70.20
2019-06-08T16:54:18.055Z,69.70
2019-06-08T16:56:49.751Z,69.00
2019-06-08T16:59:21.387Z,69.70
2019-06-08T17:01:52.183Z,70.30
2019-06-08T17:04:23.069Z,70.80
2019-06-08T17:06:54.741Z,70.70
2019-06-08T17:09:25.455Z,69.70
2019-06-08T17:11:56.158Z,68.50
2019-06-08T17:14:26.767Z,68.80
2019-06-08T17:16:59.788Z,69.40
2019-06-08T17:19:32.278Z,70.20
2019-06-08T17:22:02.917Z,70.60
2019-06-08T17:24:36.660Z,70.60
2019-06-08T17:27:25.291Z,70.30
2019-06-08T17:29:45.471Z,70.30
2019-06-08T17:32:22.077Z,70.10
2019-06-08T17:34:56.171Z,69.80
2019-06-08T17:37:27.045Z,69.70
2019-06-08T17:39:58.522Z,69.70
2019-06-08T17:42:32.066Z,70.20
2019-06-08T17:45:05.852Z,70.80
2019-06-08T17:47:36.800Z,71.20
2019-06-08T17:50:07.972Z,71.30
2019-06-08T17:52:39.184Z,71.60
2019-06-08T17:55:12.903Z,72.00
2019-06-08T17:57:53.154Z,72.40
2019-06-08T18:00:19.553Z,72.40
2019-06-08T18:02:50.151Z,72.30
2019-06-08T18:05:23.891Z,72.60
2019-06-08T18:07:57.698Z,72.80
2019-06-08T18:10:30.923Z,73.10
2019-06-08T18:13:04.323Z,73.10
2019-06-08T18:15:38.644Z,73.50
2019-06-08T18:18:09.311Z,73.80
2019-06-08T18:20:42.434Z,74.00
2019-06-08T18:23:16.835Z,74.10
2019-06-08T18:25:48.072Z,74.40
2019-06-08T18:28:19.854Z,74.60
2019-06-08T18:30:54.715Z,74.80
2019-06-08T18:33:27.011Z,76.00
2019-06-08T18:35:57.854Z,76.30
2019-06-08T18:38:28.802Z,76.10
2019-06-08T18:41:00.972Z,76.80
2019-06-08T18:43:32.124Z,76.50
2019-06-08T18:46:07.079Z,76.60
2019-06-08T18:48:41.671Z,76.50
2019-06-08T18:51:12.316Z,76.80
2019-06-08T18:53:59.680Z,76.90
2019-06-08T18:56:17.794Z,76.80
2019-06-08T18:58:51.536Z,76.90
2019-06-08T19:01:22.879Z,76.60
2019-06-08T19:03:53.912Z,76.70
2019-06-08T19:06:27.872Z,76.60
2019-06-08T19:09:01.302Z,76.80
2019-06-08T19:11:37.672Z,77.30
2019-06-08T19:14:09.844Z,77.80
2019-06-08T19:16:43.887Z,78.00
2019-06-08T19:19:13.641Z,78.00
2019-06-08T19:21:43.540Z,78.30
2019-06-08T19:24:18.288Z,79.00
2019-06-08T19:26:49.769Z,79.20
2019-06-08T19:29:22.777Z,79.20
2019-06-08T19:31:53.407Z,79.40
2019-06-08T19:34:24.567Z,79.50
2019-06-08T19:36:57.297Z,79.90
2019-06-08T19:39:28.779Z,79.90
2019-06-08T19:41:59.908Z,79.60
2019-06-08T19:44:34.465Z,79.70
2019-06-08T19:47:07.993Z,79.80
2019-06-08T19:49:39.657Z,80.00
2019-06-08T19:52:10.961Z,80.30
2019-06-08T19:54:45.638Z,80.40
2019-06-08T19:57:14.442Z,80.60
2019-06-08T19:59:47.536Z,80.80
2019-06-08T20:02:20.012Z,81.00
2019-06-08T20:04:50.792Z,80.90
2019-06-08T20:07:21.638Z,80.90
2019-06-08T20:09:52.262Z,81.00
2019-06-08T20:12:32.542Z,80.90
2019-06-08T20:15:03.231Z,80.80
2019-06-08T20:17:34.252Z,80.90
2019-06-08T20:20:11.210Z,81.10
2019-06-08T20:22:41.810Z,81.30
2019-06-08T20:25:11.617Z,81.50
2019-06-08T20:27:45.339Z,82.20
2019-06-08T20:30:17.368Z,81.80
2019-06-08T20:32:51.929Z,82.20
2019-06-08T20:35:23.661Z,82.40
2019-06-08T20:37:57.840Z,82.60
2019-06-08T20:40:29.227Z,82.90
2019-06-08T20:43:02.944Z,83.20
2019-06-08T20:45:33.596Z,83.50
2019-06-08T20:48:04.171Z,84.00
2019-06-08T20:50:34.848Z,84.30
2019-06-08T20:53:08.135Z,84.90
2019-06-08T20:55:40.380Z,85.20
2019-06-08T20:58:10.544Z,85.60
2019-06-08T21:00:41.414Z,86.10
2019-06-08T21:03:12.691Z,86.50
2019-06-08T21:05:46.244Z,86.70
2019-06-08T21:08:17.906Z,87.20
2019-06-08T21:10:52.272Z,87.20
2019-06-08T21:13:21.338Z,87.40
2019-06-08T21:15:54.317Z,87.50
2019-06-08T21:18:24.600Z,88.00
2019-06-08T21:20:57.859Z,88.40
2019-06-08T21:23:31.238Z,88.70
2019-06-08T21:26:00.435Z,88.60
2019-06-08T21:28:31.135Z,89.00
2019-06-08T21:31:02.435Z,89.20
2019-06-08T21:33:33.571Z,89.40
2019-06-08T21:36:08.354Z,89.70
2019-06-08T21:38:37.658Z,90.00
2019-06-08T21:41:08.495Z,90.00
2019-06-08T21:43:39.694Z,90.20
2019-06-08T21:46:09.111Z,90.50
2019-06-08T21:48:40.607Z,91.20
2019-06-08T21:51:11.682Z,90.80
2019-06-08T21:53:42.410Z,90.80
2019-06-08T21:56:14.735Z,91.00
2019-06-08T21:58:48.527Z,91.30
2019-06-08T22:01:19.870Z,91.50
2019-06-08T22:03:51.717Z,91.50
2019-06-08T22:06:23.045Z,91.50
2019-06-08T22:08:53.995Z,91.60
2019-06-08T22:11:24.704Z,92.00
2019-06-08T22:13:57.228Z,91.70
2019-06-08T22:16:28.038Z,91.70
2019-06-08T22:19:00.864Z,91.80
2019-06-08T22:21:32.021Z,91.70
2019-06-08T22:24:03.611Z,91.80
2019-06-08T22:26:36.427Z,91.90
2019-06-08T22:29:07.980Z,91.90
2019-06-08T22:31:39.158Z,92.00
2019-06-08T22:34:11.159Z,92.00
2019-06-08T22:36:42.343Z,92.00
2019-06-08T22:39:17.476Z,91.90
2019-06-08T22:41:47.961Z,92.00
2019-06-08T22:44:19.674Z,92.10
2019-06-08T22:46:50.680Z,92.10
2019-06-08T22:49:21.746Z,92.10
2019-06-08T22:51:53.410Z,92.10
2019-06-08T22:54:24.865Z,92.10
2019-06-08T22:56:55.643Z,92.10
2019-06-08T22:59:27.657Z,92.20
2019-06-08T23:02:01.224Z,92.10
2019-06-08T23:04:31.451Z,92.10
2019-06-08T23:07:05.959Z,92.20
2019-06-08T23:09:37.329Z,92.20
2019-06-08T23:12:10.274Z,92.20
2019-06-08T23:14:41.299Z,92.20
2019-06-08T23:17:12.506Z,92.10
2019-06-08T23:19:44.284Z,92.20
2019-06-08T23:22:17.640Z,92.10
2019-06-08T23:24:48.190Z,92.10
2019-06-08T23:27:19.946Z,92.10
2019-06-08T23:29:50.719Z,92.20
2019-06-08T23:32:21.381Z,92.20
2019-06-08T23:34:52.385Z,92.30
2019-06-08T23:37:23.376Z,92.40
2019-06-08T23:39:54.284Z,92.50
2019-06-08T23:42:27.284Z,92.40
2019-06-08T23:44:59.216Z,92.50
2019-06-08T23:47:30.846Z,92.50
2019-06-08T23:50:02.633Z,92.50
2019-06-08T23:52:34.645Z,92.60
2019-06-08T23:55:09.887Z,92.60
2019-06-08T23:57:39.236Z,92.70
